createdAt,value
2018-07-08T00:01:35.859Z,35.23
2018-07-08T00:04:04.972Z,35.57
2018-07-08T00:06:35.247Z,39.33
2018-07-08T00:09:05.147Z,36.73
2018-07-08T00:11:34.478Z,37.17
2018-07-08T00:14:04.502Z,39.93
2018-07-08T00:16:34.252Z,43.37
2018-07-08T00:19:03.440Z,36.40
2018-07-08T00:21:33.079Z,40.07
2018-07-08T00:24:02.264Z,52.60
2018-07-08T00:26:31.399Z,39.73
2018-07-08T00:29:00.547Z,38.43
2018-07-08T00:31:29.679Z,51.10
2018-07-08T00:33:58.821Z,42.27
2018-07-08T00:36:27.972Z,49.30
2018-07-08T00:38:57.102Z,52.60
2018-07-08T00:41:26.267Z,53.60
2018-07-08T00:43:55.435Z,48.63
2018-07-08T00:46:25.099Z,45.93
2018-07-08T00:48:54.302Z,52.50
2018-07-08T00:51:23.522Z,46.80
2018-07-08T00:53:53.032Z,47.87
2018-07-08T00:56:22.162Z,43.00
2018-07-08T00:58:51.387Z,51.20
2018-07-08T01:01:20.519Z,53.07
2018-07-08T01:03:49.788Z,57.00
2018-07-08T01:06:18.928Z,49.60
2018-07-08T01:08:48.049Z,51.40
2018-07-08T01:11:17.219Z,46.87
2018-07-08T01:13:46.818Z,50.97
2018-07-08T01:16:16.114Z,49.10
2018-07-08T01:18:45.391Z,56.60
2018-07-08T01:21:14.876Z,51.43
2018-07-08T01:23:44.810Z,54.00
2018-07-08T01:26:14.561Z,54.23
2018-07-08T01:28:44.839Z,54.73
2018-07-08T01:31:14.394Z,54.50
2018-07-08T01:33:43.843Z,62.93
2018-07-08T01:36:13.679Z,60.93
2018-07-08T01:38:43.283Z,66.43
2018-07-08T01:41:12.671Z,55.57
2018-07-08T01:43:42.019Z,69.40
2018-07-08T01:46:11.686Z,65.43
2018-07-08T01:48:41.045Z,65.80
2018-07-08T01:51:10.613Z,76.80
2018-07-08T01:53:41.176Z,76.80
2018-07-08T01:56:10.363Z,66.90
2018-07-08T01:58:39.506Z,69.80
2018-07-08T02:01:08.662Z,57.97
2018-07-08T02:03:37.839Z,67.50
2018-07-08T02:06:07.045Z,69.50
2018-07-08T02:08:36.683Z,65.03
2018-07-08T02:11:05.808Z,69.70
2018-07-08T02:13:34.943Z,66.17
2018-07-08T02:16:04.100Z,77.47
2018-07-08T02:18:33.820Z,63.90
2018-07-08T02:21:02.934Z,65.60
2018-07-08T02:23:32.051Z,57.73
2018-07-08T02:26:01.355Z,59.40
2018-07-08T02:28:30.694Z,62.33
2018-07-08T02:31:00.032Z,46.63
2018-07-08T02:33:29.255Z,47.20
2018-07-08T02:35:58.470Z,47.03
2018-07-08T02:38:27.875Z,43.30
2018-07-08T02:40:57.160Z,47.17
2018-07-08T02:43:26.345Z,49.47
2018-07-08T02:45:56.788Z,51.87
2018-07-08T02:48:26.846Z,49.90
2018-07-08T02:50:56.271Z,48.53
2018-07-08T02:53:25.551Z,46.93
2018-07-08T02:55:54.835Z,58.87
2018-07-08T02:58:24.274Z,50.00
2018-07-08T03:00:53.368Z,50.73
2018-07-08T03:03:22.455Z,49.77
2018-07-08T03:05:51.514Z,45.63
2018-07-08T03:08:20.595Z,46.37
2018-07-08T03:10:49.740Z,50.77
2018-07-08T03:13:18.891Z,52.10
2018-07-08T03:15:47.986Z,52.00
2018-07-08T03:18:17.103Z,42.67
2018-07-08T03:20:46.213Z,52.73
2018-07-08T03:23:15.308Z,43.47
2018-07-08T03:25:44.390Z,43.10
2018-07-08T03:28:13.455Z,46.60
2018-07-08T03:30:42.623Z,40.30
2018-07-08T03:33:11.699Z,48.00
2018-07-08T03:35:40.853Z,45.67
2018-07-08T03:38:09.919Z,48.10
2018-07-08T03:40:39.011Z,55.30
2018-07-08T03:43:08.569Z,52.13
2018-07-08T03:45:37.861Z,50.53
2018-07-08T03:48:06.970Z,53.00
2018-07-08T03:50:36.099Z,47.73
2018-07-08T03:53:05.200Z,48.30
2018-07-08T03:55:34.747Z,48.60
2018-07-08T03:58:03.859Z,51.00
2018-07-08T04:00:33.462Z,46.30
2018-07-08T04:03:02.643Z,47.93
2018-07-08T04:05:32.267Z,49.17
2018-07-08T04:08:01.859Z,46.60
2018-07-08T04:10:30.970Z,44.87
2018-07-08T04:13:00.735Z,44.30
2018-07-08T04:15:30.025Z,42.27
2018-07-08T04:18:08.944Z,42.00
2018-07-08T04:20:39.635Z,39.83
2018-07-08T04:23:09.587Z,36.70
2018-07-08T04:25:38.692Z,41.80
2018-07-08T04:28:07.818Z,37.73
2018-07-08T04:30:37.186Z,34.07
2018-07-08T04:33:06.547Z,36.07
2018-07-08T04:35:35.662Z,31.17
2018-07-08T04:38:04.842Z,38.57
2018-07-08T04:40:33.926Z,32.03
2018-07-08T04:43:03.115Z,31.23
2018-07-08T04:45:33.176Z,30.37
2018-07-08T04:48:02.314Z,29.90
2018-07-08T04:50:31.657Z,29.37
2018-07-08T04:53:00.798Z,28.90
2018-07-08T04:55:29.946Z,31.43
2018-07-08T04:57:59.731Z,34.10
2018-07-08T05:00:28.852Z,32.63
2018-07-08T05:02:58.137Z,31.23
2018-07-08T05:05:27.393Z,29.90
2018-07-08T05:07:56.701Z,33.03
2018-07-08T05:10:25.994Z,30.47
2018-07-08T05:12:55.142Z,31.63
2018-07-08T05:15:24.217Z,28.87
2018-07-08T05:17:53.294Z,28.13
2018-07-08T05:20:22.418Z,25.67
2018-07-08T05:22:51.486Z,27.23
2018-07-08T05:25:20.594Z,29.07
2018-07-08T05:27:49.712Z,22.80
2018-07-08T05:30:18.866Z,24.67
2018-07-08T05:32:47.983Z,23.53
2018-07-08T05:35:17.058Z,24.03
2018-07-08T05:37:46.154Z,21.93
2018-07-08T05:40:16.045Z,25.43
2018-07-08T05:42:45.114Z,20.97
2018-07-08T05:45:15.024Z,18.87
2018-07-08T05:47:44.107Z,20.07
2018-07-08T05:50:13.278Z,21.40
2018-07-08T05:52:43.163Z,19.87
2018-07-08T05:55:12.230Z,18.77
2018-07-08T05:57:41.322Z,20.77
2018-07-08T06:00:10.410Z,19.63
2018-07-08T06:02:39.550Z,23.47
2018-07-08T06:05:08.784Z,21.57
2018-07-08T06:07:38.113Z,18.93
2018-07-08T06:10:08.079Z,19.67
2018-07-08T06:12:37.578Z,19.50
2018-07-08T06:15:06.911Z,15.80
2018-07-08T06:17:36.651Z,12.90
2018-07-08T06:20:10.385Z,13.13
2018-07-08T06:22:40.105Z,13.07
2018-07-08T06:25:09.986Z,13.33
2018-07-08T06:27:39.495Z,15.10
2018-07-08T06:30:08.668Z,11.73
2018-07-08T06:32:37.738Z,15.47
2018-07-08T06:35:06.814Z,13.20
2018-07-08T06:37:35.943Z,14.40
2018-07-08T06:40:05.221Z,12.47
2018-07-08T06:42:34.368Z,10.93
2018-07-08T06:45:03.439Z,12.03
2018-07-08T06:47:32.566Z,12.03
2018-07-08T06:50:01.679Z,11.20
2018-07-08T06:52:30.747Z,11.80
2018-07-08T06:55:00.295Z,11.63
2018-07-08T06:57:29.399Z,10.80
2018-07-08T06:59:58.499Z,11.67
2018-07-08T07:02:27.578Z,10.93
2018-07-08T07:04:56.690Z,10.93
2018-07-08T07:07:25.798Z,11.23
2018-07-08T07:09:54.867Z,9.73
2018-07-08T07:12:24.490Z,11.23
2018-07-08T07:14:53.626Z,10.33
2018-07-08T07:17:22.831Z,9.10
2018-07-08T07:19:52.241Z,10.60
2018-07-08T07:22:22.510Z,9.53
2018-07-08T07:24:51.847Z,9.37
2018-07-08T07:27:21.207Z,9.10
2018-07-08T07:29:52.495Z,10.13
2018-07-08T07:32:21.627Z,11.00
2018-07-08T07:34:51.057Z,9.27
2018-07-08T07:37:22.112Z,9.83
2018-07-08T07:39:51.543Z,10.53
2018-07-08T07:42:21.491Z,11.83
2018-07-08T07:44:51.369Z,10.37
2018-07-08T07:47:21.250Z,13.33
2018-07-08T07:49:51.197Z,11.20
2018-07-08T07:52:21.098Z,9.73
2018-07-08T07:54:50.176Z,9.67
2018-07-08T07:57:20.103Z,9.53
2018-07-08T07:59:49.186Z,9.07
2018-07-08T08:02:19.205Z,9.97
2018-07-08T08:04:48.450Z,10.47
2018-07-08T08:07:17.543Z,9.20
2018-07-08T08:09:46.736Z,16.93
2018-07-08T08:12:16.375Z,8.90
2018-07-08T08:14:46.310Z,9.37
2018-07-08T08:17:15.591Z,9.10
2018-07-08T08:19:44.923Z,7.60
2018-07-08T08:22:14.176Z,8.93
2018-07-08T08:24:44.542Z,7.60
2018-07-08T08:27:13.614Z,8.40
2018-07-08T08:29:42.709Z,7.03
2018-07-08T08:32:12.387Z,8.27
2018-07-08T08:34:51.530Z,13.33
2018-07-08T08:37:22.518Z,10.70
2018-07-08T08:39:52.747Z,10.13
2018-07-08T08:42:22.158Z,7.33
2018-07-08T08:44:52.127Z,7.93
2018-07-08T08:47:22.125Z,6.40
2018-07-08T08:49:52.134Z,7.30
2018-07-08T08:52:21.597Z,7.70
2018-07-08T08:54:51.854Z,9.37
2018-07-08T08:57:21.331Z,9.00
2018-07-08T08:59:50.654Z,8.40
2018-07-08T09:02:20.382Z,14.40
2018-07-08T09:04:49.463Z,6.87
2018-07-08T09:07:19.731Z,8.60
2018-07-08T09:09:48.801Z,8.50
2018-07-08T09:12:17.883Z,9.00
2018-07-08T09:14:46.994Z,6.97
2018-07-08T09:17:16.518Z,9.60
2018-07-08T09:19:46.134Z,8.20
2018-07-08T09:22:15.686Z,7.10
2018-07-08T09:24:45.091Z,7.87
2018-07-08T09:27:14.598Z,6.17
2018-07-08T09:29:43.871Z,10.03
2018-07-08T09:32:13.496Z,9.93
2018-07-08T09:34:42.794Z,7.63
2018-07-08T09:37:12.571Z,8.47
2018-07-08T09:39:41.674Z,8.10
2018-07-08T09:42:10.746Z,8.37
2018-07-08T09:44:40.391Z,8.50
2018-07-08T09:47:09.471Z,8.83
2018-07-08T09:49:38.578Z,8.37
2018-07-08T09:52:08.106Z,6.23
2018-07-08T09:54:37.356Z,6.37
2018-07-08T09:57:06.957Z,11.30
2018-07-08T09:59:36.195Z,5.57
2018-07-08T10:02:06.066Z,6.10
2018-07-08T10:04:37.314Z,6.10
2018-07-08T10:07:06.402Z,6.03
2018-07-08T10:09:35.763Z,7.27
2018-07-08T10:12:05.845Z,12.80
2018-07-08T10:14:35.522Z,5.40
2018-07-08T10:17:04.825Z,8.37
2018-07-08T10:19:34.740Z,9.00
2018-07-08T10:22:04.154Z,7.60
2018-07-08T10:24:33.455Z,7.27
2018-07-08T10:29:10.507Z,7.47
2018-07-08T10:31:51.084Z,10.27
2018-07-08T10:34:20.608Z,5.50
2018-07-08T10:36:50.342Z,6.93
2018-07-08T10:39:19.451Z,8.93
2018-07-08T10:41:49.868Z,9.00
2018-07-08T10:44:18.942Z,9.50
2018-07-08T10:46:48.031Z,7.60
2018-07-08T10:49:17.141Z,6.20
2018-07-08T10:51:46.223Z,8.80
2018-07-08T10:54:15.565Z,7.97
2018-07-08T10:56:45.273Z,6.00
2018-07-08T10:59:14.344Z,6.73
2018-07-08T11:01:43.471Z,6.83
2018-07-08T11:04:12.499Z,7.37
2018-07-08T11:06:41.562Z,6.37
2018-07-08T11:09:10.642Z,9.33
2018-07-08T11:11:39.762Z,10.20
2018-07-08T11:14:08.843Z,6.80
2018-07-08T11:16:37.939Z,8.63
2018-07-08T11:19:07.040Z,5.67
2018-07-08T11:21:36.178Z,10.07
2018-07-08T11:24:05.466Z,9.70
2018-07-08T11:26:34.354Z,7.03
2018-07-08T11:29:03.718Z,8.90
2018-07-08T11:31:33.038Z,8.33
2018-07-08T11:34:02.334Z,8.67
2018-07-08T11:36:31.613Z,5.17
2018-07-08T11:39:00.891Z,7.37
2018-07-08T11:41:30.166Z,10.10
2018-07-08T11:43:59.800Z,7.47
2018-07-08T11:46:29.091Z,5.43
2018-07-08T11:48:58.297Z,9.60
2018-07-08T11:51:28.478Z,5.73
2018-07-08T11:53:57.582Z,8.33
2018-07-08T11:56:26.843Z,5.80
2018-07-08T11:58:55.943Z,4.80
2018-07-08T12:01:25.074Z,10.57
2018-07-08T12:03:54.598Z,7.27
2018-07-08T12:06:24.295Z,8.70
2018-07-08T12:08:53.410Z,6.83
2018-07-08T12:11:22.503Z,6.00
2018-07-08T12:13:53.247Z,6.53
2018-07-08T12:16:22.343Z,11.33
2018-07-08T12:18:51.434Z,6.43
2018-07-08T12:21:20.619Z,7.60
2018-07-08T12:23:50.263Z,8.13
2018-07-08T12:26:19.326Z,6.60
2018-07-08T12:28:49.091Z,6.80
2018-07-08T12:31:18.162Z,11.87
2018-07-08T12:33:47.233Z,4.73
2018-07-08T12:36:16.354Z,6.37
2018-07-08T12:38:46.026Z,4.97
2018-07-08T12:41:15.479Z,8.23
2018-07-08T12:43:44.638Z,7.50
2018-07-08T12:46:13.723Z,12.30
2018-07-08T12:48:42.811Z,7.77
2018-07-08T12:51:12.020Z,6.23
2018-07-08T12:53:41.138Z,7.60
2018-07-08T12:56:10.231Z,5.77
2018-07-08T12:58:39.848Z,7.40
2018-07-08T13:01:08.850Z,8.57
2018-07-08T13:03:37.928Z,9.13
2018-07-08T13:06:07.037Z,10.33
2018-07-08T13:08:36.379Z,6.97
2018-07-08T13:11:05.454Z,6.20
2018-07-08T13:13:34.555Z,8.90
2018-07-08T13:16:04.455Z,6.00
2018-07-08T13:18:33.531Z,6.80
2018-07-08T13:21:02.659Z,6.17
2018-07-08T13:23:31.754Z,5.53
2018-07-08T13:26:00.907Z,7.13
2018-07-08T13:28:30.052Z,9.60
2018-07-08T13:30:59.419Z,6.30
2018-07-08T13:33:29.502Z,6.93
2018-07-08T13:35:58.894Z,9.47
2018-07-08T13:38:28.219Z,5.80
2018-07-08T13:40:57.569Z,5.73
2018-07-08T13:43:26.802Z,7.40
2018-07-08T13:45:56.074Z,5.10
2018-07-08T13:48:26.879Z,6.00
2018-07-08T13:50:55.955Z,4.93
2018-07-08T13:53:25.035Z,7.93
2018-07-08T13:55:54.172Z,8.13
2018-07-08T13:58:23.242Z,7.60
2018-07-08T14:00:52.314Z,7.43
2018-07-08T14:03:21.468Z,11.33
2018-07-08T14:05:50.555Z,4.90
2018-07-08T14:08:19.638Z,8.03
2018-07-08T14:10:49.358Z,9.10
2018-07-08T14:13:19.322Z,5.93
2018-07-08T14:15:49.067Z,5.00
2018-07-08T14:18:18.397Z,6.10
2018-07-08T14:20:47.523Z,6.50
2018-07-08T14:23:16.598Z,6.37
2018-07-08T14:25:45.679Z,8.00
2018-07-08T14:28:14.782Z,4.77
2018-07-08T14:30:43.891Z,6.00
2018-07-08T14:33:13.202Z,4.20
2018-07-08T14:35:42.931Z,6.33
2018-07-08T14:38:12.002Z,7.27
2018-07-08T14:40:41.100Z,6.13
2018-07-08T14:43:10.202Z,5.80
2018-07-08T14:45:39.266Z,5.87
2018-07-08T14:48:08.350Z,5.97
2018-07-08T14:50:37.477Z,6.33
2018-07-08T14:53:06.746Z,6.33
2018-07-08T14:55:35.828Z,5.50
2018-07-08T14:58:04.919Z,12.13
2018-07-08T15:00:33.991Z,9.70
2018-07-08T15:03:03.063Z,7.43
2018-07-08T15:05:32.258Z,9.70
2018-07-08T15:08:01.419Z,6.60
2018-07-08T15:10:30.523Z,5.20
2018-07-08T15:12:59.670Z,5.80
2018-07-08T15:15:28.766Z,5.17
2018-07-08T15:17:57.863Z,9.63
2018-07-08T15:20:26.962Z,6.60
2018-07-08T15:22:56.519Z,6.67
2018-07-08T15:25:25.590Z,8.67
2018-07-08T15:27:54.694Z,6.03
2018-07-08T15:30:25.238Z,5.87
2018-07-08T15:32:54.623Z,4.40
2018-07-08T15:35:23.976Z,6.70
2018-07-08T15:37:53.371Z,7.37
2018-07-08T15:40:22.656Z,4.73
2018-07-08T15:42:53.049Z,5.60
2018-07-08T15:45:22.629Z,4.57
2018-07-08T15:47:51.930Z,5.40
2018-07-08T15:50:21.239Z,5.60
2018-07-08T15:52:53.002Z,7.30
2018-07-08T15:55:22.463Z,5.13
2018-07-08T15:57:51.943Z,6.70
2018-07-08T16:00:21.038Z,5.53
2018-07-08T16:02:50.310Z,7.60
2018-07-08T16:05:19.431Z,4.90
2018-07-08T16:07:48.510Z,5.83
2018-07-08T16:10:17.663Z,5.50
2018-07-08T16:12:46.751Z,5.47
2018-07-08T16:15:15.823Z,7.63
2018-07-08T16:17:44.943Z,6.53
2018-07-08T16:20:14.028Z,4.73
2018-07-08T16:22:43.129Z,9.23
2018-07-08T16:25:12.213Z,8.13
2018-07-08T16:27:41.274Z,5.37
2018-07-08T16:30:10.334Z,5.33
2018-07-08T16:32:39.514Z,7.20
2018-07-08T16:35:08.590Z,5.07
2018-07-08T16:37:37.668Z,5.90
2018-07-08T16:40:06.851Z,7.13
2018-07-08T16:42:36.639Z,6.40
2018-07-08T16:45:06.679Z,5.13
2018-07-08T16:47:35.846Z,6.60
2018-07-08T16:50:05.053Z,5.10
2018-07-08T16:52:36.267Z,5.80
2018-07-08T16:55:06.202Z,9.50
2018-07-08T16:57:36.096Z,4.40
2018-07-08T17:00:06.501Z,5.10
2018-07-08T17:02:36.094Z,5.70
2018-07-08T17:05:05.378Z,7.17
2018-07-08T17:07:34.515Z,6.80
2018-07-08T17:10:03.696Z,6.10
2018-07-08T17:12:32.803Z,5.00
2018-07-08T17:15:01.976Z,6.30
2018-07-08T17:17:31.853Z,4.23
2018-07-08T17:20:01.359Z,4.63
2018-07-08T17:22:31.355Z,4.97
2018-07-08T17:25:01.313Z,7.30
2018-07-08T17:27:31.139Z,4.80
2018-07-08T17:30:00.983Z,4.87
2018-07-08T17:32:31.111Z,5.73
2018-07-08T17:35:00.246Z,4.57
2018-07-08T17:37:29.394Z,6.60
2018-07-08T17:39:59.818Z,5.10
2018-07-08T17:42:29.070Z,6.10
2018-07-08T17:44:58.566Z,4.07
2018-07-08T17:47:27.863Z,4.63
2018-07-08T17:49:57.013Z,4.17
2018-07-08T17:52:26.118Z,5.40
2018-07-08T17:54:55.255Z,4.90
2018-07-08T17:57:25.070Z,4.67
2018-07-08T17:59:54.174Z,7.50
2018-07-08T18:02:23.347Z,4.70
2018-07-08T18:04:52.456Z,5.27
2018-07-08T18:07:21.523Z,5.27
2018-07-08T18:09:50.647Z,4.37
2018-07-08T18:12:21.214Z,6.67
2018-07-08T18:14:51.691Z,3.80
2018-07-08T18:17:21.247Z,3.90
2018-07-08T18:19:51.073Z,4.37
2018-07-08T18:22:20.530Z,5.87
2018-07-08T18:24:50.043Z,4.63
2018-07-08T18:27:19.207Z,7.13
2018-07-08T18:29:48.279Z,5.40
2018-07-08T18:32:17.344Z,7.27
2018-07-08T18:34:47.144Z,9.03
2018-07-08T18:37:16.278Z,3.90
2018-07-08T18:39:46.679Z,8.40
2018-07-08T18:42:16.031Z,7.67
2018-07-08T18:44:45.879Z,7.17
2018-07-08T18:47:15.250Z,4.50
2018-07-08T18:49:44.714Z,5.77
2018-07-08T18:52:14.354Z,5.10
2018-07-08T18:54:43.818Z,4.83
2018-07-08T18:57:13.177Z,4.50
2018-07-08T18:59:43.210Z,9.27
2018-07-08T19:02:13.203Z,4.00
2018-07-08T19:04:43.179Z,5.60
2018-07-08T19:07:13.026Z,5.20
2018-07-08T19:09:43.293Z,6.37
2018-07-08T19:12:13.208Z,8.43
2018-07-08T19:14:42.734Z,9.13
2018-07-08T19:17:12.554Z,5.10
2018-07-08T19:19:41.930Z,5.67
2018-07-08T19:22:11.642Z,6.63
2018-07-08T19:24:41.569Z,8.13
2018-07-08T19:27:11.527Z,6.60
2018-07-08T19:29:40.971Z,5.70
2018-07-08T19:32:11.246Z,6.90
2018-07-08T19:34:41.118Z,5.60
2018-07-08T19:37:10.250Z,4.37
2018-07-08T19:39:39.351Z,6.57
2018-07-08T19:42:08.726Z,9.03
2018-07-08T19:44:38.407Z,5.70
2018-07-08T19:47:07.784Z,6.90
2018-07-08T19:49:37.138Z,6.30
2018-07-08T19:52:06.568Z,5.70
2018-07-08T19:54:36.954Z,3.30
2018-07-08T19:57:06.409Z,8.07
2018-07-08T19:59:35.759Z,7.47
2018-07-08T20:02:05.535Z,5.37
2018-07-08T20:04:35.314Z,8.07
2018-07-08T20:07:05.231Z,5.63
2018-07-08T20:09:35.562Z,4.90
2018-07-08T20:12:05.364Z,5.00
2018-07-08T20:14:35.679Z,10.10
2018-07-08T20:17:05.871Z,6.70
2018-07-08T20:19:35.446Z,7.33
2018-07-08T20:22:04.530Z,12.13
2018-07-08T20:24:33.991Z,9.67
2018-07-08T20:27:03.082Z,8.27
2018-07-08T20:29:33.419Z,8.80
2018-07-08T20:32:02.535Z,8.60
2018-07-08T20:34:32.247Z,7.93
2018-07-08T20:37:01.607Z,7.70
2018-07-08T20:39:30.701Z,5.23
2018-07-08T20:41:59.854Z,5.80
2018-07-08T20:44:28.999Z,6.70
2018-07-08T20:46:58.875Z,10.17
2018-07-08T20:49:28.141Z,6.90
2018-07-08T20:51:58.699Z,8.17
2018-07-08T20:54:27.801Z,8.70
2018-07-08T20:56:57.302Z,7.57
2018-07-08T20:59:26.750Z,5.13
2018-07-08T21:01:58.077Z,5.97
2018-07-08T21:04:28.162Z,6.23
2018-07-08T21:06:57.394Z,6.37
2018-07-08T21:09:27.151Z,6.87
2018-07-08T21:11:57.567Z,18.43
2018-07-08T21:14:27.230Z,6.23
2018-07-08T21:16:56.417Z,9.20
2018-07-08T21:19:26.183Z,10.70
2018-07-08T21:21:56.124Z,6.00
2018-07-08T21:24:26.576Z,6.47
2018-07-08T21:26:56.718Z,8.70
2018-07-08T21:29:25.803Z,7.07
2018-07-08T21:31:56.839Z,5.60
2018-07-08T21:34:26.334Z,7.70
2018-07-08T21:36:55.571Z,9.67
2018-07-08T21:39:24.636Z,6.53
2018-07-08T21:41:54.542Z,9.27
2018-07-08T21:44:23.615Z,6.20
2018-07-08T21:46:52.709Z,8.30
2018-07-08T21:49:21.774Z,7.07
2018-07-08T21:51:50.829Z,8.17
2018-07-08T21:54:19.946Z,9.33
2018-07-08T21:56:49.429Z,8.33
2018-07-08T21:59:19.031Z,6.10
2018-07-08T22:02:02.678Z,11.43
2018-07-08T22:04:31.765Z,8.00
2018-07-08T22:07:06.108Z,8.30
2018-07-08T22:09:35.670Z,8.50
2018-07-08T22:12:04.971Z,9.23
2018-07-08T22:14:34.939Z,9.20
2018-07-08T22:17:04.182Z,9.70
2018-07-08T22:19:33.442Z,5.67
2018-07-08T22:22:02.949Z,9.20
2018-07-08T22:24:32.938Z,5.13
2018-07-08T22:27:02.058Z,6.33
2018-07-08T22:29:31.294Z,6.03
2018-07-08T22:32:00.432Z,6.33
2018-07-08T22:34:30.119Z,5.83
2018-07-08T22:36:59.263Z,8.83
2018-07-08T22:39:28.435Z,7.87
2018-07-08T22:41:58.274Z,9.10
2018-07-08T22:44:27.358Z,6.20
2018-07-08T22:46:57.828Z,5.43
2018-07-08T22:49:26.898Z,8.77
2018-07-08T22:51:55.979Z,7.23
2018-07-08T22:54:25.121Z,7.93
2018-07-08T22:56:54.215Z,5.40
2018-07-08T22:59:23.282Z,9.90
2018-07-08T23:04:11.451Z,5.27
2018-07-08T23:06:40.798Z,5.80
2018-07-08T23:09:10.064Z,7.57
2018-07-08T23:11:39.867Z,6.77
2018-07-08T23:14:08.945Z,10.10
2018-07-08T23:16:38.057Z,6.53
2018-07-08T23:19:07.315Z,8.20
2018-07-08T23:21:36.399Z,9.90
2018-07-08T23:24:05.494Z,9.23
2018-07-08T23:26:34.565Z,6.30
2018-07-08T23:29:03.746Z,13.37
2018-07-08T23:31:32.810Z,9.23
2018-07-08T23:34:02.272Z,11.13
2018-07-08T23:36:31.786Z,6.00
2018-07-08T23:39:00.859Z,6.10
2018-07-08T23:41:29.935Z,5.97
2018-07-08T23:43:59.238Z,8.80
2018-07-08T23:46:28.335Z,5.70
2018-07-08T23:48:57.431Z,11.27
2018-07-08T23:51:26.535Z,6.13
2018-07-08T23:53:56.240Z,13.13
2018-07-08T23:56:25.326Z,9.90
2018-07-08T23:58:54.450Z,7.30
